createdAt,value
2018-01-25T00:00:19.641Z,99929.94
2018-01-25T00:01:25.374Z,99915.45
2018-01-25T00:02:31.133Z,99904.48
2018-01-25T00:03:36.856Z,99923.71
2018-01-25T00:04:42.618Z,99922.73
2018-01-25T00:05:49.112Z,99911.38
2018-01-25T00:06:54.911Z,99917.61
2018-01-25T00:08:00.656Z,99915.41
2018-01-25T00:09:05.733Z,99914.43
2018-01-25T00:10:11.503Z,99915.63
2018-01-25T00:11:17.246Z,99919.02
2018-01-25T00:12:22.833Z,99905.50
2018-01-25T00:13:28.577Z,99905.92
2018-01-25T00:14:34.311Z,99902.53
2018-01-25T00:15:40.079Z,99890.36
2018-01-25T00:16:45.814Z,99898.89
2018-01-25T00:17:51.718Z,99910.84
2018-01-25T00:18:58.296Z,99895.37
2018-01-25T00:20:04.680Z,99908.46
2018-01-25T00:21:10.612Z,99899.64
2018-01-25T00:22:16.446Z,99908.77
2018-01-25T00:23:22.521Z,99909.15
2018-01-25T00:24:29.301Z,99915.55
2018-01-25T00:25:35.064Z,99906.18
2018-01-25T00:26:40.853Z,99898.77
2018-01-25T00:27:46.616Z,99892.03
2018-01-25T00:28:52.383Z,99894.44
2018-01-25T00:29:58.136Z,99885.70
2018-01-25T00:31:03.878Z,99891.81
2018-01-25T00:32:11.345Z,99899.15
2018-01-25T00:33:17.068Z,99904.52
2018-01-25T00:34:22.808Z,99903.25
2018-01-25T00:35:28.541Z,99906.64
2018-01-25T00:36:34.358Z,99905.97
2018-01-25T00:37:40.668Z,99915.11
2018-01-25T00:38:46.419Z,99918.59
2018-01-25T00:39:52.162Z,99922.58
2018-01-25T00:40:58.675Z,99921.12
2018-01-25T00:42:04.420Z,99925.11
2018-01-25T00:43:10.196Z,99923.42
2018-01-25T00:44:15.927Z,99928.38
2018-01-25T00:45:21.664Z,99933.30
2018-01-25T00:46:27.435Z,99929.66
2018-01-25T00:47:33.254Z,99935.93
2018-01-25T00:48:39.022Z,99942.59
2018-01-25T00:49:45.535Z,99936.98
2018-01-25T00:50:51.256Z,99924.11
2018-01-25T00:51:56.999Z,99936.48
2018-01-25T00:53:02.723Z,99948.38
2018-01-25T00:54:09.310Z,99940.55
2018-01-25T00:55:15.051Z,99948.22
2018-01-25T00:56:20.803Z,99953.44
2018-01-25T00:57:26.540Z,99933.59
2018-01-25T00:58:32.289Z,99952.33
2018-01-25T00:59:38.062Z,99946.36
2018-01-25T01:00:44.272Z,99952.25
2018-01-25T01:01:49.988Z,99950.00
2018-01-25T01:02:55.721Z,99946.91
2018-01-25T01:04:02.218Z,99951.88
2018-01-25T01:05:07.977Z,99961.49
2018-01-25T01:06:13.703Z,99958.22
2018-01-25T01:07:19.443Z,99949.36
2018-01-25T01:08:25.169Z,99956.27
2018-01-25T01:09:30.904Z,99957.24
2018-01-25T01:10:36.653Z,99953.39
2018-01-25T01:11:42.368Z,99967.20
2018-01-25T01:12:48.701Z,99958.00
2018-01-25T01:13:54.471Z,99962.48
2018-01-25T01:15:00.222Z,99959.81
2018-01-25T01:16:05.973Z,99961.64
2018-01-25T01:17:11.718Z,99966.12
2018-01-25T01:18:17.453Z,99965.78
2018-01-25T01:19:23.195Z,99966.59
2018-01-25T01:20:29.020Z,99967.23
2018-01-25T01:21:34.772Z,99960.16
2018-01-25T01:22:40.513Z,99969.02
2018-01-25T01:23:46.246Z,99967.95
2018-01-25T01:24:51.984Z,99966.38
2018-01-25T01:25:57.715Z,99974.18
2018-01-25T01:27:04.232Z,99970.28
2018-01-25T01:28:10.006Z,99966.89
2018-01-25T01:29:16.532Z,99970.84
2018-01-25T01:30:22.268Z,99972.69
2018-01-25T01:31:28.021Z,99972.30
2018-01-25T01:32:33.810Z,99975.40
2018-01-25T01:33:39.556Z,99970.57
2018-01-25T01:34:45.272Z,99976.02
2018-01-25T01:35:51.765Z,99973.44
2018-01-25T01:36:57.509Z,99964.47
2018-01-25T01:38:03.279Z,99969.72
2018-01-25T01:39:09.015Z,99972.98
2018-01-25T01:40:14.751Z,99976.70
2018-01-25T01:41:20.561Z,99983.09
2018-01-25T01:42:26.302Z,99989.58
2018-01-25T01:43:32.068Z,99981.50
2018-01-25T01:44:37.798Z,99977.09
2018-01-25T01:45:43.616Z,99986.67
2018-01-25T01:46:50.201Z,99989.77
2018-01-25T01:47:55.944Z,99988.70
2018-01-25T01:49:01.699Z,99992.00
2018-01-25T01:50:07.443Z,99992.20
2018-01-25T01:51:13.169Z,99994.78
2018-01-25T01:52:18.930Z,99998.80
2018-01-25T01:53:24.654Z,99995.80
2018-01-25T01:54:30.801Z,99994.05
2018-01-25T01:55:36.548Z,99984.94
2018-01-25T01:56:42.280Z,99998.74
2018-01-25T01:57:48.212Z,99992.98
2018-01-25T01:58:53.972Z,99985.43
2018-01-25T01:59:59.734Z,99988.98
2018-01-25T02:01:05.474Z,99990.25
2018-01-25T02:02:11.202Z,99990.68
2018-01-25T02:03:17.020Z,99992.80
2018-01-25T02:04:22.748Z,99992.41
2018-01-25T02:05:29.272Z,99991.83
2018-01-25T02:06:34.996Z,99991.28
2018-01-25T02:07:40.874Z,99991.34
2018-01-25T02:08:47.252Z,100000.45
2018-01-25T02:09:52.992Z,99993.52
2018-01-25T02:10:59.524Z,99993.28
2018-01-25T02:12:05.248Z,99995.02
2018-01-25T02:13:10.972Z,100000.27
2018-01-25T02:14:16.699Z,99990.88
2018-01-25T02:15:22.451Z,99999.56
2018-01-25T02:16:28.220Z,99990.28
2018-01-25T02:17:34.071Z,99985.76
2018-01-25T02:18:41.375Z,99997.59
2018-01-25T02:19:47.869Z,99987.54
2018-01-25T02:20:53.589Z,99986.56
2018-01-25T02:21:59.362Z,99997.34
2018-01-25T02:23:05.085Z,99988.06
2018-01-25T02:24:10.809Z,99990.64
2018-01-25T02:25:17.676Z,99990.13
2018-01-25T02:26:23.995Z,99985.30
2018-01-25T02:27:29.756Z,99987.50
2018-01-25T02:28:36.240Z,99988.11
2018-01-25T02:29:41.975Z,99988.06
2018-01-25T02:30:47.703Z,99981.07
2018-01-25T02:31:54.207Z,99990.58
2018-01-25T02:33:00.016Z,99985.66
2018-01-25T02:34:05.887Z,99988.28
2018-01-25T02:35:11.635Z,99985.70
2018-01-25T02:36:17.445Z,99990.53
2018-01-25T02:37:23.177Z,99981.92
2018-01-25T02:38:29.731Z,99986.70
2018-01-25T02:39:36.247Z,99988.48
2018-01-25T02:40:41.986Z,99982.85
2018-01-25T02:41:47.714Z,99984.72
2018-01-25T02:42:53.575Z,99981.67
2018-01-25T02:43:59.333Z,99976.28
2018-01-25T02:45:04.722Z,99976.00
2018-01-25T02:46:10.266Z,99980.94
2018-01-25T02:47:15.982Z,99981.06
2018-01-25T02:48:21.723Z,99977.63
2018-01-25T02:49:27.498Z,99974.70
2018-01-25T02:50:33.228Z,99972.20
2018-01-25T02:51:38.983Z,99983.47
2018-01-25T02:52:44.704Z,99976.56
2018-01-25T02:53:50.428Z,99974.90
2018-01-25T02:54:56.189Z,99978.45
2018-01-25T02:56:01.937Z,99982.44
2018-01-25T02:57:08.181Z,99985.75
2018-01-25T02:58:13.943Z,99981.69
2018-01-25T02:59:19.672Z,99983.23
2018-01-25T03:00:25.569Z,99975.77
2018-01-25T03:01:32.122Z,99981.36
2018-01-25T03:02:38.043Z,99973.86
2018-01-25T03:03:43.787Z,99972.13
2018-01-25T03:04:49.526Z,99968.88
2018-01-25T03:05:55.267Z,99974.55
2018-01-25T03:07:01.014Z,99979.72
2018-01-25T03:08:06.755Z,99975.70
2018-01-25T03:09:12.481Z,99974.94
2018-01-25T03:10:18.246Z,99972.64
2018-01-25T03:11:24.010Z,99973.11
2018-01-25T03:12:30.519Z,99976.67
2018-01-25T03:13:36.235Z,99969.30
2018-01-25T03:14:42.065Z,99972.27
2018-01-25T03:15:48.579Z,99974.77
2018-01-25T03:16:54.370Z,99972.48
2018-01-25T03:18:00.872Z,99979.86
2018-01-25T03:19:06.595Z,99977.19
2018-01-25T03:20:12.339Z,99969.58
2018-01-25T03:21:18.070Z,99973.77
2018-01-25T03:22:23.827Z,99980.64
2018-01-25T03:23:29.549Z,99975.73
2018-01-25T03:24:35.303Z,99967.84
2018-01-25T03:25:41.042Z,99963.86
2018-01-25T03:26:46.769Z,99970.94
2018-01-25T03:27:52.540Z,99977.08
2018-01-25T03:28:58.262Z,99975.44
2018-01-25T03:30:04.017Z,99967.59
2018-01-25T03:31:09.756Z,99968.70
2018-01-25T03:32:15.503Z,99969.13
2018-01-25T03:33:21.256Z,99974.12
2018-01-25T03:34:26.996Z,99979.60
2018-01-25T03:35:32.731Z,99975.92
2018-01-25T03:36:38.472Z,99979.35
2018-01-25T03:37:44.198Z,99978.42
2018-01-25T03:38:49.971Z,99985.67
2018-01-25T03:39:55.706Z,99982.62
2018-01-25T03:41:01.452Z,99986.14
2018-01-25T03:42:07.224Z,99986.86
2018-01-25T03:43:12.986Z,99994.03
2018-01-25T03:44:18.748Z,99984.61
2018-01-25T03:45:24.298Z,99994.12
2018-01-25T03:46:30.047Z,99982.41
2018-01-25T03:47:35.612Z,99986.02
2018-01-25T03:48:42.125Z,99985.87
2018-01-25T03:49:47.875Z,99994.41
2018-01-25T03:50:53.668Z,99987.16
2018-01-25T03:52:00.178Z,99992.41
2018-01-25T03:53:05.597Z,99977.91
2018-01-25T03:54:11.336Z,99989.53
2018-01-25T03:55:17.275Z,99994.28
2018-01-25T03:56:23.082Z,99990.80
2018-01-25T03:57:28.852Z,99990.59
2018-01-25T03:58:34.601Z,99990.30
2018-01-25T03:59:40.378Z,99992.03
2018-01-25T04:00:46.226Z,99996.05
2018-01-25T04:01:52.132Z,99994.39
2018-01-25T04:02:57.877Z,99992.36
2018-01-25T04:04:03.595Z,99989.94
2018-01-25T04:05:10.104Z,99989.59
2018-01-25T04:06:15.853Z,99987.09
2018-01-25T04:07:21.572Z,99982.22
2018-01-25T04:08:27.309Z,99992.89
2018-01-25T04:09:33.030Z,99982.98
2018-01-25T04:10:38.766Z,99988.82
2018-01-25T04:11:44.513Z,99989.12
2018-01-25T04:12:50.389Z,99990.64
2018-01-25T04:13:56.134Z,99984.54
2018-01-25T04:15:01.868Z,99989.38
2018-01-25T04:16:07.665Z,99983.27
2018-01-25T04:17:13.434Z,99988.02
2018-01-25T04:18:19.174Z,99992.64
2018-01-25T04:19:25.130Z,99995.95
2018-01-25T04:20:30.858Z,99990.65
2018-01-25T04:21:36.584Z,99984.77
2018-01-25T04:22:42.417Z,99987.59
2018-01-25T04:23:48.921Z,99978.48
2018-01-25T04:24:54.691Z,99992.16
2018-01-25T04:26:00.433Z,99988.26
2018-01-25T04:27:06.204Z,99997.77
2018-01-25T04:28:12.768Z,99997.84
2018-01-25T04:29:18.506Z,99987.67
2018-01-25T04:30:24.246Z,99990.55
2018-01-25T04:31:29.966Z,99998.05
2018-01-25T04:32:36.481Z,99995.97
2018-01-25T04:33:42.232Z,99992.70
2018-01-25T04:34:47.981Z,99992.66
2018-01-25T04:35:53.705Z,99997.91
2018-01-25T04:36:59.447Z,100004.91
2018-01-25T04:38:05.172Z,100010.34
2018-01-25T04:39:10.941Z,100005.55
2018-01-25T04:40:16.720Z,99997.28
2018-01-25T04:41:23.204Z,99997.02
2018-01-25T04:42:28.955Z,99994.86
2018-01-25T04:43:34.504Z,100006.59
2018-01-25T04:44:40.273Z,99999.52
2018-01-25T04:45:46.019Z,100001.30
2018-01-25T04:46:51.778Z,100008.34
2018-01-25T04:47:58.084Z,100005.55
2018-01-25T04:49:03.624Z,100002.87
2018-01-25T04:50:09.398Z,100007.02
2018-01-25T04:51:15.143Z,100007.78
2018-01-25T04:52:21.658Z,100000.20
2018-01-25T04:53:27.196Z,99999.52
2018-01-25T04:54:32.939Z,100009.77
2018-01-25T04:55:38.687Z,100002.94
2018-01-25T04:56:44.440Z,100007.73
2018-01-25T04:57:49.976Z,100004.68
2018-01-25T04:58:55.705Z,100000.58
2018-01-25T05:00:01.455Z,100009.19
2018-01-25T05:01:08.011Z,100009.45
2018-01-25T05:02:13.748Z,100008.98
2018-01-25T05:03:19.477Z,100012.03
2018-01-25T05:04:25.208Z,100004.06
2018-01-25T05:05:30.937Z,100000.39
2018-01-25T05:06:36.691Z,100009.08
2018-01-25T05:07:42.430Z,100001.62
2018-01-25T05:08:48.154Z,100005.09
2018-01-25T05:09:53.876Z,99999.80
2018-01-25T05:11:00.374Z,100012.98
2018-01-25T05:12:06.150Z,100011.10
2018-01-25T05:13:11.936Z,100005.42
2018-01-25T05:14:19.149Z,100009.02
2018-01-25T05:15:24.892Z,100009.31
2018-01-25T05:16:30.428Z,100010.11
2018-01-25T05:17:41.960Z,100014.56
2018-01-25T05:18:48.283Z,100004.86
2018-01-25T05:19:53.828Z,100009.31
2018-01-25T05:20:59.404Z,100013.87
2018-01-25T05:22:04.949Z,100005.77
2018-01-25T05:23:10.700Z,100010.22
2018-01-25T05:24:16.424Z,100003.22
2018-01-25T05:25:22.155Z,100012.08
2018-01-25T05:26:27.955Z,100007.71
2018-01-25T05:27:33.685Z,100014.75
2018-01-25T05:28:39.454Z,100012.66
2018-01-25T05:29:45.180Z,100006.22
2018-01-25T05:30:50.952Z,100008.80
2018-01-25T05:31:57.264Z,100004.70
2018-01-25T05:33:02.957Z,100002.08
2018-01-25T05:34:08.560Z,100003.39
2018-01-25T05:35:15.071Z,100002.45
2018-01-25T05:36:20.620Z,100000.72
2018-01-25T05:37:26.746Z,100003.31
2018-01-25T05:38:32.481Z,100000.77
2018-01-25T05:39:38.261Z,100004.20
2018-01-25T05:40:43.988Z,100008.38
2018-01-25T05:41:49.735Z,100002.74
2018-01-25T05:42:55.463Z,100004.95
2018-01-25T05:44:01.228Z,100007.66
2018-01-25T05:45:06.989Z,99998.00
2018-01-25T05:46:14.238Z,100004.98
2018-01-25T05:47:19.982Z,100008.08
2018-01-25T05:48:25.720Z,100007.95
2018-01-25T05:49:31.468Z,100014.86
2018-01-25T05:50:36.915Z,100010.20
2018-01-25T05:51:42.660Z,100008.70
2018-01-25T05:52:49.174Z,100015.77
2018-01-25T05:53:54.901Z,100020.05
2018-01-25T05:55:01.415Z,100016.58
2018-01-25T05:56:07.022Z,100013.45
2018-01-25T05:57:12.770Z,100022.77
2018-01-25T05:58:18.515Z,100013.91
2018-01-25T05:59:24.264Z,100016.66
2018-01-25T06:00:30.014Z,100015.27
2018-01-25T06:01:35.848Z,100016.08
2018-01-25T06:02:41.644Z,100017.05
2018-01-25T06:03:48.300Z,100015.81
2018-01-25T06:04:54.793Z,100011.52
2018-01-25T06:06:00.529Z,100013.45
2018-01-25T06:07:06.306Z,100007.39
2018-01-25T06:08:12.055Z,100008.70
2018-01-25T06:09:17.780Z,100014.27
2018-01-25T06:10:23.516Z,100013.94
2018-01-25T06:11:29.277Z,100017.56
2018-01-25T06:12:35.024Z,100014.00
2018-01-25T06:13:40.744Z,100012.69
2018-01-25T06:14:46.505Z,100009.48
2018-01-25T06:15:52.254Z,100006.78
2018-01-25T06:16:57.981Z,100006.16
2018-01-25T06:18:03.733Z,100014.30
2018-01-25T06:19:09.470Z,100007.11
2018-01-25T06:20:15.226Z,100009.22
2018-01-25T06:21:21.776Z,100008.64
2018-01-25T06:22:29.093Z,100007.25
2018-01-25T06:23:34.869Z,100006.09
2018-01-25T06:24:40.622Z,100003.93
2018-01-25T06:25:46.375Z,100007.48
2018-01-25T06:26:52.104Z,99999.41
2018-01-25T06:27:57.856Z,100007.16
2018-01-25T06:29:03.617Z,100026.36
2018-01-25T06:30:10.127Z,100009.33
2018-01-25T06:31:15.883Z,100020.02
2018-01-25T06:32:21.646Z,100018.74
2018-01-25T06:33:28.145Z,100022.17
2018-01-25T06:34:33.905Z,100020.05
2018-01-25T06:35:39.705Z,100021.56
2018-01-25T06:36:45.712Z,100024.75
2018-01-25T06:37:51.512Z,100023.01
2018-01-25T06:38:57.355Z,100020.37
2018-01-25T06:40:03.108Z,100023.94
2018-01-25T06:41:08.871Z,100026.95
2018-01-25T06:42:14.785Z,100034.83
2018-01-25T06:43:20.513Z,100028.42
2018-01-25T06:44:27.027Z,100031.86
2018-01-25T06:45:32.789Z,100031.55
2018-01-25T06:46:38.532Z,100030.78
2018-01-25T06:47:45.033Z,100033.14
2018-01-25T06:48:50.777Z,100029.02
2018-01-25T06:49:56.509Z,100026.23
2018-01-25T06:51:02.275Z,100033.61
2018-01-25T06:52:08.025Z,100028.86
2018-01-25T06:53:13.762Z,100025.73
2018-01-25T06:54:19.497Z,100028.91
2018-01-25T06:55:25.228Z,100024.50
2018-01-25T06:56:30.823Z,100021.91
2018-01-25T06:57:36.569Z,100021.48
2018-01-25T06:58:43.120Z,100011.19
2018-01-25T06:59:49.620Z,100013.81
2018-01-25T07:00:55.344Z,100017.24
2018-01-25T07:02:01.895Z,100017.75
2018-01-25T07:03:08.413Z,100016.01
2018-01-25T07:04:14.157Z,100020.64
2018-01-25T07:05:19.947Z,100028.16
2018-01-25T07:06:26.443Z,100027.61
2018-01-25T07:07:32.228Z,100029.77
2018-01-25T07:08:37.973Z,100034.02
2018-01-25T07:09:43.707Z,100029.23
2018-01-25T07:10:49.427Z,100032.83
2018-01-25T07:11:55.425Z,100028.30
2018-01-25T07:13:01.238Z,100031.27
2018-01-25T07:14:06.961Z,100029.88
2018-01-25T07:15:12.713Z,100043.74
2018-01-25T07:16:18.485Z,100044.77
2018-01-25T07:17:24.431Z,100047.08
2018-01-25T07:18:30.961Z,100050.94
2018-01-25T07:19:36.684Z,100057.20
2018-01-25T07:20:42.453Z,100060.25
2018-01-25T07:21:48.220Z,100062.44
2018-01-25T07:22:54.739Z,100061.97
2018-01-25T07:24:02.057Z,100066.42
2018-01-25T07:25:07.844Z,100064.48
2018-01-25T07:26:13.612Z,100069.19
2018-01-25T07:27:20.143Z,100074.58
2018-01-25T07:28:25.903Z,100073.57
2018-01-25T07:29:31.720Z,100072.91
2018-01-25T07:30:37.473Z,100072.09
2018-01-25T07:31:43.270Z,100074.72
2018-01-25T07:32:49.022Z,100069.47
2018-01-25T07:33:54.752Z,100071.20
2018-01-25T07:35:00.532Z,100072.44
2018-01-25T07:36:06.287Z,100068.96
2018-01-25T07:37:12.024Z,100067.06
2018-01-25T07:38:17.782Z,100066.05
2018-01-25T07:39:23.521Z,100072.42
2018-01-25T07:40:29.267Z,100071.95
2018-01-25T07:41:35.004Z,100065.56
2018-01-25T07:42:40.752Z,100065.05
2018-01-25T07:43:46.503Z,100069.76
2018-01-25T07:44:53.001Z,100067.94
2018-01-25T07:45:58.770Z,100058.61
2018-01-25T07:47:04.518Z,100058.23
2018-01-25T07:48:10.258Z,100055.18
2018-01-25T07:49:16.017Z,100058.48
2018-01-25T07:50:21.782Z,100054.03
2018-01-25T07:51:28.320Z,100052.42
2018-01-25T07:52:34.071Z,100054.42
2018-01-25T07:53:40.579Z,100055.61
2018-01-25T07:54:46.308Z,100054.17
2018-01-25T07:55:52.094Z,100057.48
2018-01-25T07:56:57.840Z,100056.85
2018-01-25T07:58:17.809Z,100053.07
2018-01-25T07:59:23.541Z,100055.70
2018-01-25T08:00:29.283Z,100054.22
2018-01-25T08:01:35.067Z,100056.43
2018-01-25T08:02:41.596Z,100048.62
2018-01-25T08:03:47.401Z,100054.14
2018-01-25T08:04:53.147Z,100048.58
2018-01-25T08:05:58.705Z,100045.95
2018-01-25T08:07:04.197Z,100055.58
2018-01-25T08:08:10.018Z,100055.92
2018-01-25T08:09:16.594Z,100056.30
2018-01-25T08:10:22.361Z,100063.94
2018-01-25T08:11:28.122Z,100061.48
2018-01-25T08:12:33.905Z,100062.75
2018-01-25T08:13:40.437Z,100063.64
2018-01-25T08:14:46.655Z,100059.06
2018-01-25T08:15:53.155Z,100064.16
2018-01-25T08:16:58.910Z,100060.43
2018-01-25T08:18:05.629Z,100055.92
2018-01-25T08:19:11.499Z,100056.44
2018-01-25T08:20:17.279Z,100061.23
2018-01-25T08:21:23.006Z,100066.16
2018-01-25T08:22:29.518Z,100067.72
2018-01-25T08:23:35.263Z,100062.50
2018-01-25T08:24:41.036Z,100064.41
2018-01-25T08:25:46.760Z,100060.16
2018-01-25T08:26:52.484Z,100059.91
2018-01-25T08:27:58.234Z,100052.77
2018-01-25T08:29:03.975Z,100056.12
2018-01-25T08:30:09.565Z,100052.98
2018-01-25T08:31:15.628Z,100050.22
2018-01-25T08:32:21.203Z,100048.48
2018-01-25T08:33:26.951Z,100046.70
2018-01-25T08:34:32.729Z,100046.45
2018-01-25T08:35:39.078Z,100053.36
2018-01-25T08:36:45.620Z,100050.56
2018-01-25T08:37:51.659Z,100050.05
2018-01-25T08:38:58.899Z,100052.04
2018-01-25T08:40:04.647Z,100048.68
2018-01-25T08:41:10.462Z,100052.20
2018-01-25T08:42:16.207Z,100053.20
2018-01-25T08:43:21.951Z,100051.67
2018-01-25T08:44:28.109Z,100057.00
2018-01-25T08:45:33.848Z,100060.02
2018-01-25T08:46:39.601Z,100057.25
2018-01-25T08:47:45.369Z,100060.78
2018-01-25T08:48:51.105Z,100059.20
2018-01-25T08:49:56.855Z,100067.57
2018-01-25T08:51:02.581Z,100067.37
2018-01-25T08:52:08.346Z,100063.52
2018-01-25T08:53:14.104Z,100058.04
2018-01-25T08:54:20.633Z,100067.02
2018-01-25T08:55:26.414Z,100067.33
2018-01-25T08:56:32.900Z,100075.47
2018-01-25T08:57:38.671Z,100074.20
2018-01-25T08:58:44.509Z,100075.26
2018-01-25T08:59:50.258Z,100069.73
2018-01-25T09:00:56.006Z,100065.20
2018-01-25T09:02:01.750Z,100074.19
2018-01-25T09:03:08.290Z,100074.73
2018-01-25T09:04:14.014Z,100071.08
2018-01-25T09:05:19.527Z,100070.05
2018-01-25T09:06:25.288Z,100071.25
2018-01-25T09:07:31.033Z,100070.31
2018-01-25T09:08:36.789Z,100078.03
2018-01-25T09:09:42.535Z,100078.70
2018-01-25T09:10:48.261Z,100077.51
2018-01-25T09:11:54.040Z,100080.85
2018-01-25T09:12:59.586Z,100081.08
2018-01-25T09:14:05.368Z,100084.09
2018-01-25T09:15:11.106Z,100085.11
2018-01-25T09:16:16.860Z,100082.76
2018-01-25T09:17:22.596Z,100090.35
2018-01-25T09:18:28.333Z,100096.47
2018-01-25T09:19:34.113Z,100100.53
2018-01-25T09:20:39.867Z,100101.66
2018-01-25T09:21:47.113Z,100100.92
2018-01-25T09:22:52.844Z,100100.52
2018-01-25T09:23:58.736Z,100105.80
2018-01-25T09:25:05.244Z,100102.05
2018-01-25T09:26:11.012Z,100106.94
2018-01-25T09:27:16.741Z,100106.00
2018-01-25T09:28:22.473Z,100109.79
2018-01-25T09:29:28.193Z,100109.59
2018-01-25T09:30:33.978Z,100105.94
2018-01-25T09:31:40.078Z,100101.11
2018-01-25T09:32:45.822Z,100109.53
2018-01-25T09:33:52.341Z,100107.06
2018-01-25T09:34:58.064Z,100106.95
2018-01-25T09:36:03.839Z,100104.31
2018-01-25T09:37:10.351Z,100112.14
2018-01-25T09:38:16.088Z,100107.94
2018-01-25T09:39:21.839Z,100108.31
2018-01-25T09:40:27.585Z,100115.53
2018-01-25T09:41:33.030Z,100108.95
2018-01-25T09:42:38.779Z,100108.14
2018-01-25T09:43:45.273Z,100112.05
2018-01-25T09:44:51.897Z,100107.78
2018-01-25T09:45:57.624Z,100111.69
2018-01-25T09:47:04.423Z,100113.91
2018-01-25T09:48:18.506Z,100109.15
2018-01-25T09:49:24.082Z,100104.00
2018-01-25T09:50:29.826Z,100110.00
2018-01-25T09:51:35.590Z,100109.88
2018-01-25T09:52:42.336Z,100111.67
2018-01-25T09:53:48.056Z,100110.59
2018-01-25T09:54:53.597Z,100113.31
2018-01-25T09:55:59.323Z,100110.64
2018-01-25T09:57:05.084Z,100117.25
2018-01-25T09:58:10.837Z,100115.85
2018-01-25T09:59:16.606Z,100119.92
2018-01-25T10:00:23.119Z,100117.48
2018-01-25T10:01:28.877Z,100113.96
2018-01-25T10:02:34.391Z,100114.22
2018-01-25T10:03:40.178Z,100114.43
2018-01-25T10:04:47.052Z,100115.16
2018-01-25T10:05:52.810Z,100121.47
2018-01-25T10:06:58.566Z,100115.86
2018-01-25T10:08:04.332Z,100119.10
2018-01-25T10:09:10.123Z,100117.95
2018-01-25T10:10:15.891Z,100116.95
2018-01-25T10:11:21.856Z,100115.44
2018-01-25T10:12:27.635Z,100121.13
2018-01-25T10:13:33.397Z,100121.20
2018-01-25T10:14:39.152Z,100122.20
2018-01-25T10:15:44.906Z,100114.64
2018-01-25T10:16:50.650Z,100122.88
2018-01-25T10:17:56.415Z,100116.64
2018-01-25T10:19:02.337Z,100121.48
2018-01-25T10:20:08.125Z,100122.89
2018-01-25T10:21:14.646Z,100120.30
2018-01-25T10:22:20.444Z,100124.00
2018-01-25T10:23:27.032Z,100116.41
2018-01-25T10:24:32.790Z,100121.44
2018-01-25T10:25:38.615Z,100114.89
2018-01-25T10:26:44.137Z,100119.98
2018-01-25T10:27:49.873Z,100124.07
2018-01-25T10:28:55.620Z,100121.39
2018-01-25T10:30:01.425Z,100115.32
2018-01-25T10:31:07.341Z,100116.72
2018-01-25T10:32:13.475Z,100116.94
2018-01-25T10:33:19.243Z,100112.86
2018-01-25T10:34:25.030Z,100112.27
2018-01-25T10:35:31.537Z,100113.61
2018-01-25T10:36:37.325Z,100112.88
2018-01-25T10:37:43.822Z,100113.37
2018-01-25T10:38:49.353Z,100111.16
2018-01-25T10:39:55.148Z,100111.58
2018-01-25T10:41:01.663Z,100112.89
2018-01-25T10:42:07.424Z,100111.53
2018-01-25T10:43:13.190Z,100111.31
2018-01-25T10:44:19.787Z,100109.41
2018-01-25T10:45:25.535Z,100106.58
2018-01-25T10:46:31.282Z,100103.19
2018-01-25T10:47:37.040Z,100108.45
2018-01-25T10:48:42.992Z,100110.83
2018-01-25T10:49:48.776Z,100104.30
2018-01-25T10:50:55.278Z,100107.09
2018-01-25T10:52:01.094Z,100108.36
2018-01-25T10:53:06.856Z,100106.23
2018-01-25T10:54:12.643Z,100109.09
2018-01-25T10:55:19.895Z,100107.26
2018-01-25T10:56:25.634Z,100103.77
2018-01-25T10:57:31.384Z,100103.23
2018-01-25T10:58:37.173Z,100106.20
2018-01-25T10:59:42.971Z,100106.88
2018-01-25T11:00:54.345Z,100111.48
2018-01-25T11:02:05.490Z,100104.90
2018-01-25T11:03:11.224Z,100106.98
2018-01-25T11:04:16.981Z,100112.91
2018-01-25T11:05:22.520Z,100104.75
2018-01-25T11:06:28.297Z,100107.71
2018-01-25T11:07:34.803Z,100101.59
2018-01-25T11:08:40.630Z,100104.33
2018-01-25T11:09:46.380Z,100100.89
2018-01-25T11:10:52.108Z,100102.11
2018-01-25T11:11:57.867Z,100098.48
2018-01-25T11:13:03.620Z,100092.33
2018-01-25T11:14:09.368Z,100092.53
2018-01-25T11:15:15.135Z,100090.56
2018-01-25T11:16:20.899Z,100096.55
2018-01-25T11:17:27.867Z,100097.55
2018-01-25T11:18:34.658Z,100089.70
2018-01-25T11:19:40.424Z,100093.80
2018-01-25T11:20:46.189Z,100086.42
2018-01-25T11:21:51.939Z,100084.97
2018-01-25T11:22:57.699Z,100086.01
2018-01-25T11:24:04.251Z,100091.23
2018-01-25T11:25:10.751Z,100087.80
2018-01-25T11:26:16.530Z,100087.00
2018-01-25T11:27:22.285Z,100089.81
2018-01-25T11:28:28.054Z,100090.23
2018-01-25T11:29:33.831Z,100087.65
2018-01-25T11:30:39.641Z,100088.97
2018-01-25T11:31:45.405Z,100091.18
2018-01-25T11:32:51.172Z,100087.74
2018-01-25T11:33:56.939Z,100092.73
2018-01-25T11:35:02.680Z,100092.02
2018-01-25T11:36:09.180Z,100090.61
2018-01-25T11:37:14.958Z,100095.03
2018-01-25T11:38:20.724Z,100091.97
2018-01-25T11:39:27.499Z,100087.70
2018-01-25T11:40:34.045Z,100088.97
2018-01-25T11:41:39.776Z,100092.88
2018-01-25T11:42:45.556Z,100090.28
2018-01-25T11:43:51.351Z,100093.17
2018-01-25T11:44:57.115Z,100093.80
2018-01-25T11:46:03.697Z,100091.58
2018-01-25T11:47:10.039Z,100088.92
2018-01-25T11:48:15.995Z,100092.92
2018-01-25T11:49:22.329Z,100089.58
2018-01-25T11:50:27.931Z,100090.33
2018-01-25T11:51:33.694Z,100088.55
2018-01-25T11:52:39.464Z,100089.39
2018-01-25T11:53:46.013Z,100088.69
2018-01-25T11:54:51.751Z,100088.31
2018-01-25T11:55:57.534Z,100090.27
2018-01-25T11:57:03.269Z,100086.79
2018-01-25T11:58:09.074Z,100082.88
2018-01-25T11:59:15.018Z,100088.06
2018-01-25T12:00:20.767Z,100081.56
2018-01-25T12:01:27.300Z,100087.13
2018-01-25T12:02:33.041Z,100079.93
2018-01-25T12:03:38.838Z,100081.80
2018-01-25T12:04:44.598Z,100080.69
2018-01-25T12:05:50.336Z,100085.48
2018-01-25T12:06:55.905Z,100084.41
2018-01-25T12:08:01.640Z,100084.73
2018-01-25T12:09:07.371Z,100084.22
2018-01-25T12:10:13.149Z,100082.62
2018-01-25T12:11:19.725Z,100082.41
2018-01-25T12:12:26.238Z,100082.63
2018-01-25T12:13:31.960Z,100077.70
2018-01-25T12:14:37.695Z,100082.02
2018-01-25T12:15:43.453Z,100078.81
2018-01-25T12:16:49.199Z,100077.92
2018-01-25T12:17:54.951Z,100079.28
2018-01-25T12:19:00.737Z,100077.70
2018-01-25T12:20:07.271Z,100077.66
2018-01-25T12:21:13.073Z,100074.64
2018-01-25T12:22:18.800Z,100075.06
2018-01-25T12:23:24.556Z,100071.89
2018-01-25T12:24:29.980Z,100070.05
2018-01-25T12:25:35.713Z,100072.17
2018-01-25T12:26:41.552Z,100071.14
2018-01-25T12:27:47.276Z,100066.24
2018-01-25T12:28:53.774Z,100066.62
2018-01-25T12:29:59.509Z,100069.55
2018-01-25T12:31:05.267Z,100069.45
2018-01-25T12:32:11.017Z,100067.01
2018-01-25T12:33:16.760Z,100063.84
2018-01-25T12:34:22.485Z,100065.97
2018-01-25T12:35:28.224Z,100060.94
2018-01-25T12:36:34.182Z,100056.36
2018-01-25T12:37:39.973Z,100058.89
2018-01-25T12:38:46.498Z,100057.02
2018-01-25T12:39:52.273Z,100061.03